createdAt,value
2022-09-17T00:00:20.622Z,74.67
2022-09-17T00:03:26.985Z,74.71
2022-09-17T00:06:34.098Z,74.79
2022-09-17T00:09:40.149Z,74.97
2022-09-17T00:12:45.986Z,75.13
2022-09-17T00:15:52.603Z,75.09
2022-09-17T00:18:59.670Z,75.20
2022-09-17T00:22:05.546Z,75.35
2022-09-17T00:25:12.211Z,75.33
2022-09-17T00:28:19.571Z,75.44
2022-09-17T00:31:26.341Z,75.51
2022-09-17T00:34:32.192Z,75.49
2022-09-17T00:37:38.094Z,75.50
2022-09-17T00:40:43.989Z,75.60
2022-09-17T00:43:52.141Z,75.68
2022-09-17T00:46:58.952Z,75.62
2022-09-17T00:50:09.210Z,75.70
2022-09-17T00:53:18.714Z,75.68
2022-09-17T00:56:28.095Z,75.81
2022-09-17T00:59:34.347Z,76.01
2022-09-17T01:02:39.086Z,75.88
2022-09-17T01:05:50.170Z,76.18
2022-09-17T01:09:14.870Z,76.04
2022-09-17T01:12:38.170Z,76.17
2022-09-17T01:15:50.369Z,76.22
2022-09-17T01:19:11.925Z,76.14
2022-09-17T01:22:25.563Z,76.18
2022-09-17T01:25:45.681Z,76.39
2022-09-17T01:28:58.515Z,76.28
2022-09-17T01:32:11.326Z,76.40
2022-09-17T01:35:23.165Z,76.46
2022-09-17T01:38:36.149Z,76.34
2022-09-17T01:41:47.745Z,76.28
2022-09-17T01:45:01.819Z,76.44
2022-09-17T01:48:12.874Z,76.39
2022-09-17T01:51:22.290Z,76.53
2022-09-17T01:54:32.605Z,76.65
2022-09-17T01:57:43.891Z,76.45
2022-09-17T02:00:53.500Z,76.57
2022-09-17T02:04:04.633Z,76.58
2022-09-17T02:07:16.333Z,76.67
2022-09-17T02:10:25.251Z,76.77
2022-09-17T02:13:37.564Z,76.75
2022-09-17T02:16:49.534Z,76.73
2022-09-17T02:19:56.861Z,76.91
2022-09-17T02:23:09.239Z,76.75
2022-09-17T02:26:19.614Z,76.75
2022-09-17T02:29:33.626Z,76.85
2022-09-17T02:32:39.717Z,76.80
2022-09-17T02:35:47.797Z,76.95
2022-09-17T02:39:03.119Z,76.87
2022-09-17T02:42:17.716Z,76.95
2022-09-17T02:45:37.471Z,76.93
2022-09-17T02:49:08.849Z,76.90
2022-09-17T02:52:27.059Z,76.80
2022-09-17T02:55:42.883Z,76.98
2022-09-17T02:58:54.686Z,76.99
2022-09-17T03:02:05.175Z,77.13
2022-09-17T03:05:12.024Z,77.16
2022-09-17T03:08:20.419Z,77.12
2022-09-17T03:11:26.925Z,77.29
2022-09-17T03:14:32.911Z,77.26
2022-09-17T03:17:39.095Z,77.19
2022-09-17T03:20:43.554Z,77.17
2022-09-17T03:23:50.691Z,77.27
2022-09-17T03:26:57.145Z,77.20
2022-09-17T03:30:03.033Z,77.10
2022-09-17T03:33:09.128Z,77.24
2022-09-17T03:36:15.275Z,77.23
2022-09-17T03:39:21.330Z,77.02
2022-09-17T03:42:27.525Z,77.13
2022-09-17T03:45:31.784Z,77.21
2022-09-17T03:48:39.867Z,77.07
2022-09-17T03:51:45.966Z,77.40
2022-09-17T03:54:52.092Z,77.28
2022-09-17T03:57:58.168Z,77.31
2022-09-17T04:01:04.833Z,77.35
2022-09-17T04:04:11.141Z,77.44
2022-09-17T04:07:17.278Z,77.25
2022-09-17T04:10:23.759Z,77.47
2022-09-17T04:13:29.955Z,77.37
2022-09-17T04:16:34.223Z,77.43
2022-09-17T04:19:40.198Z,77.46
2022-09-17T04:22:46.043Z,77.59
2022-09-17T04:25:51.986Z,77.65
2022-09-17T04:28:58.121Z,77.47
2022-09-17T04:32:04.694Z,77.42
2022-09-17T04:35:11.257Z,77.46
2022-09-17T04:38:18.748Z,77.57
2022-09-17T04:41:24.627Z,77.51
2022-09-17T04:44:30.517Z,77.45
2022-09-17T04:47:39.333Z,77.53
2022-09-17T04:50:45.203Z,77.49
2022-09-17T04:53:51.367Z,77.65
2022-09-17T04:56:57.486Z,77.65
2022-09-17T05:00:03.914Z,77.72
2022-09-17T05:03:10.229Z,77.49
2022-09-17T05:06:16.434Z,77.69
2022-09-17T05:09:20.938Z,77.51
2022-09-17T05:12:29.259Z,77.79
2022-09-17T05:15:38.671Z,78.06
2022-09-17T05:18:43.229Z,78.03
2022-09-17T05:21:49.090Z,78.09
2022-09-17T05:24:54.959Z,78.17
2022-09-17T05:28:02.302Z,78.15
2022-09-17T05:31:09.053Z,78.09
2022-09-17T05:34:15.355Z,78.28
2022-09-17T05:37:19.798Z,78.21
2022-09-17T05:40:24.084Z,78.29
2022-09-17T05:43:28.384Z,78.30
2022-09-17T05:46:32.650Z,78.29
2022-09-17T05:49:37.063Z,78.55
2022-09-17T05:52:41.539Z,78.56
2022-09-17T05:55:45.752Z,78.62
2022-09-17T05:58:50.022Z,78.66
2022-09-17T06:01:54.326Z,78.78
2022-09-17T06:05:00.934Z,78.81
2022-09-17T06:08:05.824Z,78.82
2022-09-17T06:11:10.901Z,78.94
2022-09-17T06:14:15.648Z,79.15
2022-09-17T06:17:22.183Z,79.00
2022-09-17T06:20:26.663Z,78.99
2022-09-17T06:23:35.377Z,79.13
2022-09-17T06:26:39.617Z,79.12
2022-09-17T06:29:43.810Z,79.13
2022-09-17T06:32:48.026Z,79.14
2022-09-17T06:35:57.341Z,79.15
2022-09-17T06:39:01.673Z,79.12
2022-09-17T06:42:06.426Z,79.31
2022-09-17T06:45:16.378Z,79.43
2022-09-17T06:48:21.098Z,79.62
2022-09-17T06:51:25.289Z,79.57
2022-09-17T06:54:29.518Z,79.65
2022-09-17T06:57:33.743Z,79.57
2022-09-17T07:00:37.977Z,79.56
2022-09-17T07:03:44.122Z,79.63
2022-09-17T07:06:48.341Z,79.65
2022-09-17T07:09:53.833Z,79.40
2022-09-17T07:12:58.118Z,79.55
2022-09-17T07:16:03.423Z,79.29
2022-09-17T07:19:09.012Z,79.31
2022-09-17T07:22:14.154Z,79.28
2022-09-17T07:25:18.366Z,79.02
2022-09-17T07:28:22.768Z,78.84
2022-09-17T07:31:27.061Z,78.51
2022-09-17T07:34:31.303Z,78.30
2022-09-17T07:37:35.558Z,78.26
2022-09-17T07:40:39.746Z,78.44
2022-09-17T07:43:44.354Z,78.27
2022-09-17T07:46:48.623Z,77.95
2022-09-17T07:49:52.861Z,77.74
2022-09-17T07:52:57.065Z,77.58
2022-09-17T07:56:01.818Z,77.04
2022-09-17T07:59:06.390Z,76.56
2022-09-17T08:02:13.052Z,76.57
2022-09-17T08:05:17.445Z,76.33
2022-09-17T08:08:21.656Z,76.02
2022-09-17T08:11:51.659Z,76.05
2022-09-17T08:14:51.424Z,75.80
2022-09-17T08:17:55.620Z,75.30
2022-09-17T08:21:00.509Z,75.00
2022-09-17T08:24:05.042Z,75.13
2022-09-17T08:27:09.239Z,75.19
2022-09-17T08:30:13.704Z,74.69
2022-09-17T08:33:18.230Z,74.86
2022-09-17T08:36:23.047Z,74.69
2022-09-17T08:39:27.380Z,74.35
2022-09-17T08:42:38.849Z,74.49
2022-09-17T08:45:43.421Z,74.05
2022-09-17T08:48:51.295Z,74.19
2022-09-17T08:52:03.363Z,74.06
2022-09-17T08:55:15.345Z,73.85
2022-09-17T08:58:36.725Z,73.61
2022-09-17T09:01:43.905Z,73.10
2022-09-17T09:05:03.641Z,73.32
2022-09-17T09:08:14.064Z,72.78
2022-09-17T09:11:20.132Z,72.86
2022-09-17T09:14:26.442Z,72.79
2022-09-17T09:17:33.725Z,72.17
2022-09-17T09:20:42.942Z,72.32
2022-09-17T09:23:53.651Z,72.37
2022-09-17T09:27:02.610Z,72.48
2022-09-17T09:30:08.802Z,71.96
2022-09-17T09:33:15.512Z,72.19
2022-09-17T09:36:22.149Z,72.41
2022-09-17T09:39:32.247Z,71.80
2022-09-17T09:42:40.381Z,71.60
2022-09-17T09:45:50.413Z,71.37
2022-09-17T09:49:01.453Z,70.80
2022-09-17T09:52:11.430Z,70.74
2022-09-17T09:55:26.851Z,70.82
2022-09-17T09:58:35.733Z,70.69
2022-09-17T10:01:41.785Z,70.57
2022-09-17T10:04:48.319Z,70.55
2022-09-17T10:07:55.790Z,70.61
2022-09-17T10:11:01.528Z,70.68
2022-09-17T10:14:17.480Z,70.46
2022-09-17T10:17:23.001Z,69.81
2022-09-17T10:20:27.290Z,69.88
2022-09-17T10:23:34.632Z,69.82
2022-09-17T10:26:39.338Z,69.65
2022-09-17T10:29:46.142Z,69.30
2022-09-17T10:33:11.438Z,69.18
2022-09-17T10:36:15.641Z,69.08
2022-09-17T10:39:36.827Z,68.77
2022-09-17T10:42:40.998Z,68.12
2022-09-17T10:45:46.774Z,68.27
2022-09-17T10:48:58.558Z,68.22
2022-09-17T10:52:11.730Z,67.73
2022-09-17T10:55:22.590Z,67.76
2022-09-17T10:58:34.185Z,67.32
2022-09-17T11:01:46.095Z,67.23
2022-09-17T11:04:55.683Z,67.05
2022-09-17T11:08:06.587Z,66.83
2022-09-17T11:11:11.909Z,66.70
2022-09-17T11:14:22.025Z,66.60
2022-09-17T11:17:46.949Z,66.60
2022-09-17T11:21:08.942Z,66.56
2022-09-17T11:24:30.886Z,66.51
2022-09-17T11:27:47.240Z,66.14
2022-09-17T11:30:56.008Z,65.89
2022-09-17T11:34:23.454Z,65.77
2022-09-17T11:37:30.138Z,65.93
2022-09-17T11:40:39.181Z,65.96
2022-09-17T11:43:46.373Z,65.87
2022-09-17T11:46:54.134Z,65.81
2022-09-17T11:50:01.877Z,65.44
2022-09-17T11:53:09.954Z,65.42
2022-09-17T11:56:17.035Z,65.33
2022-09-17T11:59:24.349Z,65.25
2022-09-17T12:02:37.786Z,65.22
2022-09-17T12:05:44.599Z,65.29
2022-09-17T12:08:55.091Z,64.94
2022-09-17T12:12:02.325Z,64.77
2022-09-17T12:15:08.706Z,64.75
2022-09-17T12:18:31.853Z,64.92
2022-09-17T12:21:39.257Z,64.58
2022-09-17T12:24:43.751Z,64.70
2022-09-17T12:27:54.295Z,64.79
2022-09-17T12:31:03.696Z,64.80
2022-09-17T12:34:19.314Z,64.17
2022-09-17T12:37:28.290Z,64.51
2022-09-17T12:40:33.772Z,64.27
2022-09-17T12:43:55.362Z,64.32
2022-09-17T12:47:09.733Z,64.41
2022-09-17T12:50:20.346Z,64.19
2022-09-17T12:53:29.891Z,64.30
2022-09-17T12:56:40.834Z,63.94
2022-09-17T12:59:49.274Z,64.00
2022-09-17T13:02:59.372Z,63.56
2022-09-17T13:06:16.952Z,63.59
2022-09-17T13:09:40.551Z,63.46
2022-09-17T13:12:47.607Z,63.52
2022-09-17T13:15:59.421Z,63.57
2022-09-17T13:19:15.972Z,63.18
2022-09-17T13:22:21.939Z,63.14
2022-09-17T13:25:27.282Z,63.33
2022-09-17T13:28:43.296Z,63.20
2022-09-17T13:31:51.153Z,63.35
2022-09-17T13:34:55.533Z,63.19
2022-09-17T13:38:00.330Z,63.29
2022-09-17T13:41:17.935Z,63.34
2022-09-17T13:44:24.166Z,63.11
2022-09-17T13:47:31.257Z,63.26
2022-09-17T13:50:36.891Z,63.24
2022-09-17T13:53:41.178Z,63.28
2022-09-17T13:56:47.254Z,63.22
2022-09-17T13:59:55.950Z,63.16
2022-09-17T14:03:20.139Z,62.99
2022-09-17T14:06:41.398Z,63.31
2022-09-17T14:09:55.781Z,63.09
2022-09-17T14:13:02.858Z,62.98
2022-09-17T14:16:24.781Z,63.13
2022-09-17T14:19:37.031Z,63.14
2022-09-17T14:22:41.631Z,63.21
2022-09-17T14:25:49.621Z,62.95
2022-09-17T14:28:57.286Z,63.29
2022-09-17T14:32:01.648Z,63.17
2022-09-17T14:35:19.937Z,62.99
2022-09-17T14:38:25.856Z,63.26
2022-09-17T14:41:35.664Z,63.18
2022-09-17T14:44:48.314Z,63.29
2022-09-17T14:48:12.610Z,62.98
2022-09-17T14:51:26.073Z,62.90
2022-09-17T14:54:35.834Z,63.12
2022-09-17T14:57:40.807Z,63.25
2022-09-17T15:00:52.023Z,63.39
2022-09-17T15:04:09.601Z,63.09
2022-09-17T15:07:14.960Z,63.13
2022-09-17T15:10:20.152Z,63.17
2022-09-17T15:13:27.354Z,63.16
2022-09-17T15:16:33.535Z,63.41
2022-09-17T15:19:39.049Z,63.42
2022-09-17T15:22:45.254Z,63.48
2022-09-17T15:25:50.649Z,63.57
2022-09-17T15:28:56.415Z,63.24
2022-09-17T15:32:01.533Z,63.33
2022-09-17T15:35:28.307Z,63.52
2022-09-17T15:38:33.655Z,63.47
2022-09-17T15:41:39.789Z,63.61
2022-09-17T15:44:45.060Z,63.63
2022-09-17T15:47:56.695Z,63.60
2022-09-17T15:51:02.053Z,63.79
2022-09-17T15:54:09.391Z,63.70
2022-09-17T15:57:17.682Z,63.69
2022-09-17T16:00:22.457Z,63.88
2022-09-17T16:03:44.552Z,64.00
2022-09-17T16:06:53.186Z,63.98
2022-09-17T16:09:59.503Z,64.28
2022-09-17T16:13:03.757Z,64.35
2022-09-17T16:16:12.579Z,64.46
2022-09-17T16:19:16.801Z,64.36
2022-09-17T16:22:21.184Z,64.50
2022-09-17T16:25:27.306Z,64.29
2022-09-17T16:28:32.046Z,64.49
2022-09-17T16:31:36.315Z,64.61
2022-09-17T16:34:40.529Z,64.58
2022-09-17T16:37:44.805Z,64.51
2022-09-17T16:40:49.968Z,64.71
2022-09-17T16:43:54.210Z,64.78
2022-09-17T16:46:58.601Z,64.78
2022-09-17T16:50:02.886Z,64.78
2022-09-17T16:53:07.076Z,64.92
2022-09-17T16:56:11.860Z,64.94
2022-09-17T16:59:16.340Z,64.82
2022-09-17T17:02:20.537Z,65.10
2022-09-17T17:05:25.210Z,65.05
2022-09-17T17:08:29.428Z,65.07
2022-09-17T17:11:33.848Z,65.09
2022-09-17T17:14:38.174Z,65.35
2022-09-17T17:17:42.402Z,65.31
2022-09-17T17:20:47.689Z,65.47
2022-09-17T17:23:52.524Z,65.38
2022-09-17T17:26:56.922Z,65.64
2022-09-17T17:30:04.624Z,65.81
2022-09-17T17:33:08.846Z,65.97
2022-09-17T17:36:14.226Z,66.01
2022-09-17T17:39:18.530Z,66.02
2022-09-17T17:42:22.738Z,66.19
2022-09-17T17:45:26.945Z,66.22
2022-09-17T17:48:31.173Z,66.29
2022-09-17T17:51:35.635Z,66.40
2022-09-17T17:54:39.871Z,66.53
2022-09-17T17:57:44.137Z,66.64
2022-09-17T18:00:48.373Z,66.65
2022-09-17T18:03:56.728Z,66.76
2022-09-17T18:07:00.918Z,67.07
2022-09-17T18:10:05.498Z,67.01
2022-09-17T18:13:09.916Z,67.12
2022-09-17T18:16:15.575Z,67.09
2022-09-17T18:19:19.917Z,67.27
2022-09-17T18:22:24.142Z,67.34
2022-09-17T18:25:28.909Z,67.24
2022-09-17T18:28:34.961Z,67.40
2022-09-17T18:31:39.434Z,67.59
2022-09-17T18:34:43.901Z,67.66
2022-09-17T18:37:48.103Z,67.71
2022-09-17T18:40:52.751Z,67.84
2022-09-17T18:43:56.950Z,67.79
2022-09-17T18:47:01.237Z,67.99
2022-09-17T18:50:05.754Z,67.93
2022-09-17T18:53:10.139Z,68.03
2022-09-17T18:56:16.366Z,68.18
2022-09-17T18:59:20.861Z,68.20
2022-09-17T19:02:25.411Z,68.40
2022-09-17T19:05:30.614Z,68.30
2022-09-17T19:08:35.129Z,68.30
2022-09-17T19:11:39.350Z,68.26
2022-09-17T19:14:43.594Z,68.21
2022-09-17T19:17:47.766Z,68.26
2022-09-17T19:20:51.982Z,68.38
2022-09-17T19:23:56.530Z,68.31
2022-09-17T19:27:01.767Z,68.42
2022-09-17T19:30:07.001Z,68.46
2022-09-17T19:33:11.298Z,68.45
2022-09-17T19:36:16.573Z,68.60
2022-09-17T19:39:20.766Z,68.76
2022-09-17T19:42:25.912Z,68.78
2022-09-17T19:45:31.134Z,68.89
2022-09-17T19:48:36.695Z,69.06
2022-09-17T19:51:42.219Z,69.00
2022-09-17T19:54:46.412Z,69.08
2022-09-17T19:57:50.607Z,69.11
2022-09-17T20:00:57.446Z,69.20
2022-09-17T20:04:02.056Z,69.34
2022-09-17T20:07:06.385Z,69.30
2022-09-17T20:10:10.982Z,69.34
2022-09-17T20:13:15.438Z,69.51
2022-09-17T20:16:21.018Z,69.48
2022-09-17T20:19:25.623Z,69.39
2022-09-17T20:22:30.507Z,69.61
2022-09-17T20:25:35.083Z,69.52
2022-09-17T20:28:39.305Z,69.67
2022-09-17T20:31:43.624Z,69.72
2022-09-17T20:34:50.046Z,69.66
2022-09-17T20:39:00.003Z,69.79
2022-09-17T20:41:19.142Z,69.85
2022-09-17T20:44:23.602Z,69.79
2022-09-17T20:47:28.026Z,69.99
2022-09-17T20:50:32.552Z,69.93
2022-09-17T20:53:37.534Z,69.94
2022-09-17T20:56:42.329Z,70.05
2022-09-17T20:59:53.112Z,70.18
2022-09-17T21:02:57.674Z,70.17
2022-09-17T21:06:02.001Z,70.27
2022-09-17T21:09:07.369Z,70.22
2022-09-17T21:12:11.889Z,70.26
2022-09-17T21:15:16.185Z,70.34
2022-09-17T21:18:20.386Z,70.31
2022-09-17T21:21:24.675Z,70.46
2022-09-17T21:24:28.878Z,70.54
2022-09-17T21:27:33.630Z,70.47
2022-09-17T21:30:38.094Z,70.57
2022-09-17T21:33:43.187Z,70.63
2022-09-17T21:36:48.387Z,70.57
2022-09-17T21:39:52.607Z,70.55
2022-09-17T21:42:57.089Z,70.75
2022-09-17T21:46:02.256Z,70.72
2022-09-17T21:49:06.561Z,70.82
2022-09-17T21:52:10.930Z,70.85
2022-09-17T21:55:15.419Z,70.90
2022-09-17T21:58:19.619Z,70.83
2022-09-17T22:01:25.293Z,70.99
2022-09-17T22:04:29.541Z,71.11
2022-09-17T22:07:33.968Z,70.99
2022-09-17T22:10:38.205Z,71.02
2022-09-17T22:13:42.795Z,71.16
2022-09-17T22:16:47.994Z,71.07
2022-09-17T22:19:52.402Z,71.09
2022-09-17T22:22:56.828Z,71.27
2022-09-17T22:26:05.513Z,71.22
2022-09-17T22:29:10.650Z,71.30
2022-09-17T22:32:15.205Z,71.30
2022-09-17T22:35:19.413Z,71.32
2022-09-17T22:38:23.598Z,71.38
2022-09-17T22:41:28.660Z,71.29
2022-09-17T22:44:32.839Z,71.26
2022-09-17T22:47:37.203Z,71.50
2022-09-17T22:50:41.689Z,71.61
2022-09-17T22:53:46.298Z,71.61
2022-09-17T22:56:50.780Z,71.79
2022-09-17T22:59:55.218Z,71.67
2022-09-17T23:02:59.477Z,71.90
2022-09-17T23:06:04.921Z,71.92
2022-09-17T23:09:09.305Z,72.03
2022-09-17T23:12:13.738Z,72.27
2022-09-17T23:15:18.633Z,72.13
2022-09-17T23:18:23.126Z,72.19
2022-09-17T23:21:27.566Z,72.22
2022-09-17T23:24:34.421Z,72.26
2022-09-17T23:27:38.853Z,72.48
2022-09-17T23:30:43.547Z,72.41
2022-09-17T23:33:48.778Z,72.69
2022-09-17T23:36:53.512Z,72.79
2022-09-17T23:39:57.982Z,72.76
2022-09-17T23:43:02.270Z,72.94
2022-09-17T23:46:07.000Z,72.91
2022-09-17T23:49:13.224Z,73.04
2022-09-17T23:52:17.557Z,73.25
2022-09-17T23:55:21.753Z,73.11
2022-09-17T23:58:26.154Z,73.16
